createdAt,value
2018-05-08T00:00:17.188Z,5.40
2018-05-08T00:02:48.425Z,5.50
2018-05-08T00:05:19.608Z,5.30
2018-05-08T00:07:51.560Z,5.20
2018-05-08T00:10:22.776Z,5.17
2018-05-08T00:12:54.010Z,4.87
2018-05-08T00:15:25.434Z,5.03
2018-05-08T00:17:56.705Z,4.97
2018-05-08T00:20:27.920Z,5.03
2018-05-08T00:22:59.165Z,5.27
2018-05-08T00:25:30.379Z,5.00
2018-05-08T00:28:02.286Z,5.23
2018-05-08T00:30:33.498Z,5.23
2018-05-08T00:33:05.786Z,5.63
2018-05-08T00:35:37.055Z,5.97
2018-05-08T00:38:08.578Z,5.60
2018-05-08T00:40:39.759Z,5.23
2018-05-08T00:43:11.164Z,5.20
2018-05-08T00:45:42.353Z,6.17
2018-05-08T00:48:13.570Z,5.33
2018-05-08T00:50:44.738Z,4.83
2018-05-08T00:53:15.960Z,5.17
2018-05-08T00:55:47.162Z,5.53
2018-05-08T00:58:19.194Z,4.93
2018-05-08T01:00:50.391Z,5.67
2018-05-08T01:03:21.589Z,4.97
2018-05-08T01:05:52.840Z,5.80
2018-05-08T01:08:24.086Z,5.60
2018-05-08T01:10:55.314Z,5.60
2018-05-08T01:13:26.525Z,5.27
2018-05-08T01:15:57.686Z,5.47
2018-05-08T01:18:28.926Z,4.90
2018-05-08T01:21:00.273Z,4.97
2018-05-08T01:23:31.459Z,5.43
2018-05-08T01:26:02.611Z,5.63
2018-05-08T01:28:34.563Z,5.50
2018-05-08T01:31:05.727Z,5.90
2018-05-08T01:33:36.979Z,6.10
2018-05-08T01:36:08.162Z,5.70
2018-05-08T01:38:39.781Z,5.37
2018-05-08T01:41:10.962Z,6.07
2018-05-08T01:43:42.154Z,5.77
2018-05-08T01:46:14.082Z,5.57
2018-05-08T01:48:45.261Z,5.37
2018-05-08T01:51:16.493Z,5.70
2018-05-08T01:53:48.420Z,5.50
2018-05-08T01:56:19.664Z,5.47
2018-05-08T01:58:51.089Z,5.60
2018-05-08T02:01:22.304Z,5.53
2018-05-08T02:03:53.491Z,6.37
2018-05-08T02:06:24.706Z,5.67
2018-05-08T02:08:56.149Z,6.00
2018-05-08T02:11:27.360Z,5.63
2018-05-08T02:13:59.283Z,6.57
2018-05-08T02:16:30.521Z,6.23
2018-05-08T02:19:01.777Z,6.03
2018-05-08T02:21:33.094Z,6.53
2018-05-08T02:24:04.291Z,5.97
2018-05-08T02:26:36.291Z,5.87
2018-05-08T02:29:07.458Z,5.53
2018-05-08T02:31:38.889Z,6.30
2018-05-08T02:34:10.054Z,5.30
2018-05-08T02:36:41.346Z,5.73
2018-05-08T02:39:14.359Z,6.37
2018-05-08T02:41:45.575Z,6.27
2018-05-08T02:44:17.514Z,5.83
2018-05-08T02:46:48.735Z,5.67
2018-05-08T02:49:19.961Z,6.07
2018-05-08T02:51:51.710Z,5.30
2018-05-08T02:54:22.865Z,5.90
2018-05-08T02:56:54.078Z,5.27
2018-05-08T02:59:26.036Z,5.63
2018-05-08T03:01:57.976Z,5.60
2018-05-08T03:04:29.901Z,5.57
2018-05-08T03:07:01.533Z,5.20
2018-05-08T03:09:32.707Z,6.17
2018-05-08T03:12:03.937Z,5.67
2018-05-08T03:14:35.105Z,6.30
2018-05-08T03:17:06.338Z,5.53
2018-05-08T03:19:37.544Z,6.20
2018-05-08T03:22:08.849Z,5.83
2018-05-08T03:24:41.525Z,6.17
2018-05-08T03:27:12.824Z,6.67
2018-05-08T03:29:44.026Z,6.33
2018-05-08T03:32:15.953Z,5.40
2018-05-08T03:34:47.141Z,6.33
2018-05-08T03:37:19.138Z,6.43
2018-05-08T03:39:50.382Z,6.33
2018-05-08T03:42:21.597Z,5.77
2018-05-08T03:44:52.859Z,6.30
2018-05-08T03:47:24.061Z,6.30
2018-05-08T03:49:56.010Z,5.53
2018-05-08T03:52:27.197Z,5.97
2018-05-08T03:54:58.368Z,6.27
2018-05-08T03:57:29.653Z,5.90
2018-05-08T04:00:00.833Z,6.03
2018-05-08T04:02:44.394Z,6.17
2018-05-08T04:05:28.165Z,6.60
2018-05-08T04:08:12.757Z,7.13
2018-05-08T04:10:43.942Z,6.43
2018-05-08T04:13:16.749Z,6.27
2018-05-08T04:15:47.930Z,6.40
2018-05-08T04:18:19.129Z,5.97
2018-05-08T04:20:51.161Z,5.70
2018-05-08T04:23:22.349Z,6.30
2018-05-08T04:25:53.557Z,6.70
2018-05-08T04:28:24.741Z,6.47
2018-05-08T04:30:56.712Z,6.23
2018-05-08T04:33:27.885Z,6.30
2018-05-08T04:35:59.139Z,6.10
2018-05-08T04:38:30.333Z,6.43
2018-05-08T04:41:02.367Z,7.50
2018-05-08T04:43:34.733Z,6.67
2018-05-08T04:46:05.890Z,6.57
2018-05-08T04:48:37.133Z,7.03
2018-05-08T04:51:08.333Z,6.70
2018-05-08T04:53:39.778Z,7.23
2018-05-08T04:56:11.007Z,6.40
2018-05-08T04:58:42.233Z,6.60
2018-05-08T05:01:14.271Z,6.07
2018-05-08T05:03:45.496Z,6.63
2018-05-08T05:06:17.134Z,6.40
2018-05-08T05:08:48.332Z,6.03
2018-05-08T05:11:20.295Z,6.97
2018-05-08T05:13:51.515Z,6.73
2018-05-08T05:16:22.741Z,6.50
2018-05-08T05:18:54.032Z,6.10
2018-05-08T05:21:25.325Z,7.03
2018-05-08T05:23:56.525Z,7.07
2018-05-08T05:26:28.465Z,6.40
2018-05-08T05:29:00.103Z,6.63
2018-05-08T05:31:31.356Z,5.90
2018-05-08T05:34:02.590Z,6.00
2018-05-08T05:36:33.749Z,5.80
2018-05-08T05:39:05.019Z,6.13
2018-05-08T05:41:37.058Z,5.80
2018-05-08T05:44:08.303Z,5.77
2018-05-08T05:46:39.530Z,5.27
2018-05-08T05:49:10.735Z,6.50
2018-05-08T05:51:41.952Z,6.60
2018-05-08T05:54:13.913Z,6.07
2018-05-08T05:56:46.131Z,5.70
2018-05-08T05:59:17.319Z,5.80
2018-05-08T06:01:48.621Z,6.43
2018-05-08T06:04:19.837Z,6.43
2018-05-08T06:06:51.034Z,6.13
2018-05-08T06:09:22.217Z,6.10
2018-05-08T06:11:54.307Z,6.23
2018-05-08T06:14:25.552Z,5.40
2018-05-08T06:16:56.812Z,6.30
2018-05-08T06:19:28.103Z,5.83
2018-05-08T06:21:59.368Z,6.33
2018-05-08T06:24:30.592Z,6.67
2018-05-08T06:27:02.540Z,6.83
2018-05-08T06:29:34.480Z,6.00
2018-05-08T06:32:05.672Z,5.70
2018-05-08T06:34:36.870Z,5.50
2018-05-08T06:37:08.059Z,5.90
2018-05-08T06:39:39.234Z,5.40
2018-05-08T06:42:10.786Z,6.07
2018-05-08T06:44:41.956Z,5.63
2018-05-08T06:47:13.190Z,6.13
2018-05-08T06:49:44.381Z,5.93
2018-05-08T06:52:16.660Z,5.57
2018-05-08T06:54:47.968Z,5.57
2018-05-08T06:57:19.250Z,6.73
2018-05-08T06:59:50.505Z,5.83
2018-05-08T07:02:22.378Z,5.43
2018-05-08T07:04:53.610Z,5.90
2018-05-08T07:07:26.087Z,5.77
2018-05-08T07:09:57.304Z,5.50
2018-05-08T07:12:28.612Z,5.57
2018-05-08T07:14:59.835Z,5.50
2018-05-08T07:17:31.108Z,5.53
2018-05-08T07:20:02.338Z,6.00
2018-05-08T07:22:33.946Z,5.53
2018-05-08T07:25:05.109Z,5.27
2018-05-08T07:27:36.442Z,5.27
2018-05-08T07:30:07.713Z,5.67
2018-05-08T07:32:39.976Z,5.20
2018-05-08T07:35:11.175Z,5.10
2018-05-08T07:37:43.178Z,4.40
2018-05-08T07:40:14.459Z,5.33
2018-05-08T07:42:45.757Z,4.53
2018-05-08T07:45:16.937Z,4.83
2018-05-08T07:47:51.128Z,5.23
2018-05-08T07:50:24.487Z,5.40
2018-05-08T07:52:56.559Z,5.23
2018-05-08T07:55:27.782Z,4.97
2018-05-08T07:57:59.717Z,4.80
2018-05-08T08:00:30.898Z,4.70
2018-05-08T08:03:02.918Z,4.63
2018-05-08T08:05:35.969Z,4.77
2018-05-08T08:08:07.453Z,4.20
2018-05-08T08:10:39.440Z,4.80
2018-05-08T08:13:11.394Z,4.73
2018-05-08T08:15:43.444Z,4.70
2018-05-08T08:18:14.726Z,4.57
2018-05-08T08:20:46.894Z,6.97
2018-05-08T08:23:19.077Z,3.80
2018-05-08T08:25:50.318Z,4.03
2018-05-08T08:28:21.566Z,4.97
2018-05-08T08:30:52.759Z,5.53
2018-05-08T08:33:24.019Z,4.07
2018-05-08T08:35:55.241Z,4.80
2018-05-08T08:38:26.519Z,5.50
2018-05-08T08:40:58.547Z,5.13
2018-05-08T08:43:29.887Z,7.37
2018-05-08T08:46:01.136Z,4.93
2018-05-08T08:48:32.483Z,4.23
2018-05-08T08:51:04.484Z,5.23
2018-05-08T08:53:36.439Z,3.70
2018-05-08T08:56:07.731Z,2.90
2018-05-08T08:58:38.889Z,3.03
2018-05-08T09:01:10.131Z,4.70
2018-05-08T09:03:41.338Z,4.70
2018-05-08T09:06:13.772Z,4.73
2018-05-08T09:08:45.753Z,2.97
2018-05-08T09:11:17.220Z,3.80
2018-05-08T09:13:48.393Z,2.57
2018-05-08T09:16:19.583Z,4.17
2018-05-08T09:18:51.636Z,6.63
2018-05-08T09:21:22.881Z,3.17
2018-05-08T09:23:54.258Z,2.60
2018-05-08T09:26:25.438Z,2.43
2018-05-08T09:28:56.691Z,2.40
2018-05-08T09:31:27.892Z,3.33
2018-05-08T09:33:59.147Z,2.80
2018-05-08T09:36:30.395Z,2.60
2018-05-08T09:39:02.496Z,3.03
2018-05-08T09:41:33.717Z,2.47
2018-05-08T09:44:05.002Z,2.23
2018-05-08T09:46:36.171Z,2.60
2018-05-08T09:49:08.342Z,2.87
2018-05-08T09:51:40.309Z,2.77
2018-05-08T09:54:11.574Z,2.77
2018-05-08T09:56:43.507Z,2.37
2018-05-08T09:59:14.792Z,2.00
2018-05-08T10:01:45.994Z,3.30
2018-05-08T10:04:18.005Z,2.77
2018-05-08T10:06:49.303Z,2.83
2018-05-08T10:09:20.571Z,3.07
2018-05-08T10:11:51.860Z,4.10
2018-05-08T10:14:23.055Z,3.00
2018-05-08T10:16:54.273Z,2.10
2018-05-08T10:19:25.526Z,2.40
2018-05-08T10:21:56.759Z,2.00
2018-05-08T10:24:28.710Z,2.30
2018-05-08T10:27:00.291Z,2.97
2018-05-08T10:29:31.462Z,2.90
2018-05-08T10:32:02.897Z,2.60
2018-05-08T10:34:34.075Z,3.33
2018-05-08T10:37:05.310Z,2.00
2018-05-08T10:39:36.541Z,2.30
2018-05-08T10:42:07.814Z,2.53
2018-05-08T10:44:39.125Z,2.73
2018-05-08T10:47:10.350Z,2.60
2018-05-08T10:49:41.493Z,12.93
2018-05-08T10:52:12.771Z,5.83
2018-05-08T10:54:43.955Z,3.00
2018-05-08T10:57:15.930Z,2.40
2018-05-08T10:59:47.880Z,2.37
2018-05-08T11:02:19.843Z,2.27
2018-05-08T11:04:51.843Z,2.20
2018-05-08T11:07:23.053Z,2.20
2018-05-08T11:09:55.011Z,2.50
2018-05-08T11:12:26.956Z,2.80
2018-05-08T11:14:58.168Z,4.50
2018-05-08T11:17:29.399Z,3.17
2018-05-08T11:20:00.830Z,2.47
2018-05-08T11:22:31.969Z,2.40
2018-05-08T11:25:03.239Z,2.80
2018-05-08T11:27:34.494Z,2.97
2018-05-08T11:30:05.694Z,2.33
2018-05-08T11:32:37.689Z,2.23
2018-05-08T11:35:08.941Z,2.47
2018-05-08T11:37:40.231Z,2.40
2018-05-08T11:40:11.538Z,2.00
2018-05-08T11:42:42.705Z,2.10
2018-05-08T11:45:14.048Z,2.17
2018-05-08T11:47:45.309Z,1.97
2018-05-08T11:50:17.298Z,2.10
2018-05-08T11:52:48.517Z,2.10
2018-05-08T11:55:19.793Z,1.93
2018-05-08T11:57:51.226Z,2.17
2018-05-08T12:00:23.314Z,2.50
2018-05-08T12:02:54.535Z,2.27
2018-05-08T12:05:25.940Z,2.20
2018-05-08T12:07:57.114Z,2.33
2018-05-08T12:10:29.069Z,2.60
2018-05-08T12:13:01.072Z,3.17
2018-05-08T12:15:32.317Z,2.27
2018-05-08T12:18:03.505Z,2.57
2018-05-08T12:20:34.743Z,2.93
2018-05-08T12:23:05.944Z,2.70
2018-05-08T12:25:37.698Z,2.80
2018-05-08T12:28:09.584Z,2.50
2018-05-08T12:30:40.869Z,2.17
2018-05-08T12:33:12.950Z,2.30
2018-05-08T12:35:45.145Z,2.63
2018-05-08T12:38:16.575Z,2.40
2018-05-08T12:40:47.775Z,2.50
2018-05-08T12:43:19.063Z,2.30
2018-05-08T12:45:50.346Z,2.50
2018-05-08T12:48:21.636Z,3.33
2018-05-08T12:50:52.923Z,3.00
2018-05-08T12:53:24.344Z,3.10
2018-05-08T12:55:55.606Z,2.90
2018-05-08T12:58:26.877Z,2.60
2018-05-08T13:00:58.128Z,2.70
2018-05-08T13:03:30.102Z,3.97
2018-05-08T13:06:01.388Z,2.80
2018-05-08T13:08:32.694Z,2.83
2018-05-08T13:11:04.203Z,3.10
2018-05-08T13:13:36.248Z,2.60
2018-05-08T13:16:07.573Z,3.07
2018-05-08T13:18:39.586Z,3.50
2018-05-08T13:21:10.967Z,2.67
2018-05-08T13:23:43.035Z,2.93
2018-05-08T13:26:17.776Z,2.17
2018-05-08T13:28:49.031Z,2.50
2018-05-08T13:31:20.268Z,2.40
2018-05-08T13:33:52.280Z,2.33
2018-05-08T13:36:23.486Z,2.40
2018-05-08T13:38:54.951Z,2.73
2018-05-08T13:41:26.286Z,2.60
2018-05-08T13:43:57.530Z,2.20
2018-05-08T13:46:28.844Z,2.30
2018-05-08T13:49:00.020Z,2.10
2018-05-08T13:51:31.615Z,2.10
2018-05-08T13:54:02.897Z,2.20
2018-05-08T13:56:34.929Z,2.50
2018-05-08T13:59:06.169Z,2.23
2018-05-08T14:01:37.377Z,2.17
2018-05-08T14:04:08.623Z,2.40
2018-05-08T14:06:39.961Z,2.00
2018-05-08T14:09:11.102Z,2.40
2018-05-08T14:11:42.349Z,3.37
2018-05-08T14:14:14.681Z,3.20
2018-05-08T14:16:45.869Z,3.70
2018-05-08T14:19:17.348Z,2.77
2018-05-08T14:21:48.686Z,3.53
2018-05-08T14:24:20.544Z,1.93
2018-05-08T14:26:51.916Z,2.10
2018-05-08T14:29:23.224Z,2.40
2018-05-08T14:31:54.546Z,2.40
2018-05-08T14:34:25.771Z,2.57
2018-05-08T14:36:57.314Z,2.13
2018-05-08T14:39:28.547Z,2.40
2018-05-08T14:42:00.645Z,2.30
2018-05-08T14:44:32.571Z,3.00
2018-05-08T14:47:03.822Z,2.60
2018-05-08T14:49:35.128Z,2.90
2018-05-08T14:52:07.180Z,2.73
2018-05-08T14:54:38.406Z,2.70
2018-05-08T14:57:09.653Z,3.53
2018-05-08T14:59:41.630Z,3.00
2018-05-08T15:02:13.813Z,2.60
2018-05-08T15:04:44.886Z,2.40
2018-05-08T15:07:16.191Z,2.53
2018-05-08T15:09:47.392Z,2.80
2018-05-08T15:12:18.602Z,2.97
2018-05-08T15:14:49.876Z,2.53
2018-05-08T15:17:21.828Z,2.40
2018-05-08T15:19:53.421Z,2.10
2018-05-08T15:22:25.449Z,16.73
2018-05-08T15:24:57.546Z,6.43
2018-05-08T15:27:28.847Z,6.50
2018-05-08T15:30:00.098Z,2.30
2018-05-08T15:32:31.373Z,2.43
2018-05-08T15:35:02.604Z,2.43
2018-05-08T15:37:33.883Z,2.23
2018-05-08T15:40:05.147Z,2.37
2018-05-08T15:42:36.400Z,2.10
2018-05-08T15:45:07.581Z,1.70
2018-05-08T15:47:39.637Z,1.80
2018-05-08T15:50:11.583Z,2.33
2018-05-08T15:52:42.792Z,1.70
2018-05-08T15:55:14.150Z,1.77
2018-05-08T15:57:45.367Z,2.00
2018-05-08T16:00:16.609Z,2.20
2018-05-08T16:02:47.804Z,2.13
2018-05-08T16:05:19.051Z,2.47
2018-05-08T16:07:50.381Z,1.83
2018-05-08T16:10:21.565Z,2.00
2018-05-08T16:12:53.523Z,2.00
2018-05-08T16:15:25.513Z,2.53
2018-05-08T16:17:56.766Z,1.90
2018-05-08T16:20:28.316Z,2.07
2018-05-08T16:22:59.504Z,2.30
2018-05-08T16:25:30.808Z,7.53
2018-05-08T16:28:02.970Z,5.03
2018-05-08T16:30:34.148Z,4.63
2018-05-08T16:33:05.446Z,6.67
2018-05-08T16:35:37.359Z,4.90
2018-05-08T16:38:08.611Z,3.30
2018-05-08T16:40:39.772Z,2.63
2018-05-08T16:43:11.756Z,2.37
2018-05-08T16:45:42.938Z,2.67
2018-05-08T16:48:14.454Z,3.43
2018-05-08T16:50:45.808Z,3.53
2018-05-08T16:53:17.099Z,2.17
2018-05-08T16:55:48.291Z,1.80
2018-05-08T16:58:19.544Z,2.20
2018-05-08T17:00:50.782Z,2.57
2018-05-08T17:03:21.999Z,3.10
2018-05-08T17:05:54.255Z,2.70
2018-05-08T17:08:25.520Z,2.67
2018-05-08T17:10:56.742Z,3.70
2018-05-08T17:13:28.707Z,2.40
2018-05-08T17:15:59.959Z,2.70
2018-05-08T17:18:31.919Z,2.13
2018-05-08T17:21:03.844Z,2.57
2018-05-08T17:23:35.133Z,2.20
2018-05-08T17:26:07.100Z,2.50
2018-05-08T17:28:39.143Z,2.13
2018-05-08T17:31:10.443Z,2.50
2018-05-08T17:33:41.786Z,2.20
2018-05-08T17:36:12.967Z,2.50
2018-05-08T17:38:44.984Z,3.03
2018-05-08T17:41:16.256Z,2.27
2018-05-08T17:43:47.858Z,2.53
2018-05-08T17:46:19.529Z,2.80
2018-05-08T17:48:50.799Z,2.30
2018-05-08T17:51:22.084Z,2.33
2018-05-08T17:53:53.352Z,2.27
2018-05-08T17:56:24.538Z,2.60
2018-05-08T17:58:55.797Z,2.43
2018-05-08T18:01:27.023Z,2.23
2018-05-08T18:03:58.264Z,2.90
2018-05-08T18:06:30.548Z,2.70
2018-05-08T18:09:01.705Z,2.77
2018-05-08T18:11:32.924Z,2.50
2018-05-08T18:14:04.166Z,2.80
2018-05-08T18:16:35.391Z,2.83
2018-05-08T18:19:06.613Z,2.70
2018-05-08T18:21:38.526Z,2.63
2018-05-08T18:24:09.775Z,2.70
2018-05-08T18:26:40.985Z,2.90
2018-05-08T18:29:12.255Z,2.63
2018-05-08T18:31:43.596Z,2.60
2018-05-08T18:34:14.888Z,2.97
2018-05-08T18:36:46.171Z,2.77
2018-05-08T18:39:17.341Z,2.73
2018-05-08T18:41:48.574Z,3.10
2018-05-08T18:44:19.807Z,3.13
2018-05-08T18:46:51.345Z,3.20
2018-05-08T18:49:22.689Z,3.23
2018-05-08T18:51:53.873Z,3.20
2018-05-08T18:54:25.073Z,2.77
2018-05-08T18:56:56.343Z,3.03
2018-05-08T18:59:27.551Z,3.07
2018-05-08T19:01:59.531Z,2.73
2018-05-08T19:04:30.744Z,2.90
2018-05-08T19:07:02.784Z,3.10
2018-05-08T19:09:34.038Z,2.70
2018-05-08T19:12:06.251Z,4.57
2018-05-08T19:14:37.460Z,3.30
2018-05-08T19:17:09.451Z,3.70
2018-05-08T19:19:46.821Z,3.57
2018-05-08T19:22:18.026Z,3.33
2018-05-08T19:24:49.298Z,3.40
2018-05-08T19:27:21.510Z,3.60
2018-05-08T19:29:58.899Z,3.30
2018-05-08T19:32:30.205Z,3.20
2018-05-08T19:35:08.754Z,3.43
2018-05-08T19:37:46.042Z,3.60
2018-05-08T19:40:17.276Z,3.37
2018-05-08T19:42:48.527Z,4.40
2018-05-08T19:45:19.875Z,3.70
2018-05-08T19:47:51.041Z,3.40
2018-05-08T19:50:22.433Z,3.50
2018-05-08T19:52:53.640Z,3.17
2018-05-08T19:55:24.903Z,4.23
2018-05-08T19:57:56.283Z,3.50
2018-05-08T20:00:27.671Z,3.27
2018-05-08T20:02:58.874Z,3.20
2018-05-08T20:05:30.105Z,3.10
2018-05-08T20:08:01.342Z,3.40
2018-05-08T20:10:32.689Z,3.47
2018-05-08T20:13:04.676Z,3.70
2018-05-08T20:15:35.904Z,3.30
2018-05-08T20:18:13.358Z,3.60
2018-05-08T20:20:44.619Z,3.67
2018-05-08T20:23:15.853Z,3.33
2018-05-08T20:25:47.053Z,3.20
2018-05-08T20:28:18.241Z,3.77
2018-05-08T20:30:49.571Z,3.10
2018-05-08T20:33:20.822Z,3.80
2018-05-08T20:35:52.104Z,4.03
2018-05-08T20:38:24.078Z,3.83
2018-05-08T20:40:56.020Z,3.57
2018-05-08T20:43:27.997Z,3.60
2018-05-08T20:45:59.936Z,3.47
2018-05-08T20:48:31.165Z,3.60
2018-05-08T20:51:02.462Z,3.63
2018-05-08T20:53:33.696Z,3.03
2018-05-08T20:56:05.599Z,3.67
2018-05-08T20:58:36.834Z,3.40
2018-05-08T21:01:08.076Z,2.93
2018-05-08T21:03:40.013Z,3.33
2018-05-08T21:06:13.104Z,3.47
2018-05-08T21:08:44.271Z,3.43
2018-05-08T21:11:15.647Z,3.33
2018-05-08T21:13:47.662Z,3.40
2018-05-08T21:16:18.906Z,3.17
2018-05-08T21:18:50.105Z,3.20
2018-05-08T21:21:21.354Z,3.60
2018-05-08T21:23:53.464Z,3.37
2018-05-08T21:26:24.695Z,3.13
2018-05-08T21:28:58.937Z,3.17
2018-05-08T21:31:30.200Z,3.37
2018-05-08T21:34:01.421Z,3.30
2018-05-08T21:36:32.590Z,3.27
2018-05-08T21:39:04.831Z,3.40
2018-05-08T21:41:36.083Z,3.30
2018-05-08T21:44:07.363Z,3.40
2018-05-08T21:46:40.402Z,3.37
2018-05-08T21:49:11.603Z,3.37
2018-05-08T21:51:43.632Z,3.30
2018-05-08T21:54:14.904Z,3.40
2018-05-08T21:56:46.900Z,3.30
2018-05-08T21:59:18.089Z,3.43
2018-05-08T22:01:49.344Z,3.13
2018-05-08T22:04:21.355Z,3.33
2018-05-08T22:06:52.898Z,4.00
2018-05-08T22:09:24.143Z,4.10
2018-05-08T22:11:55.444Z,3.47
2018-05-08T22:14:26.686Z,3.60
2018-05-08T22:16:58.683Z,3.87
2018-05-08T22:19:29.866Z,3.90
2018-05-08T22:22:01.393Z,4.47
2018-05-08T22:24:32.609Z,4.37
2018-05-08T22:27:04.678Z,4.00
2018-05-08T22:29:35.902Z,4.10
2018-05-08T22:32:07.274Z,3.77
2018-05-08T22:34:39.180Z,3.73
2018-05-08T22:37:10.429Z,3.80
2018-05-08T22:39:41.712Z,3.80
2018-05-08T22:42:12.939Z,3.63
2018-05-08T22:44:44.314Z,3.80
2018-05-08T22:47:15.504Z,3.30
2018-05-08T22:49:46.735Z,3.30
2018-05-08T22:52:18.158Z,3.23
2018-05-08T22:54:49.338Z,4.27
2018-05-08T22:57:20.683Z,3.60
2018-05-08T22:59:51.960Z,3.20
2018-05-08T23:02:24.413Z,3.00
2018-05-08T23:04:55.698Z,3.70
2018-05-08T23:07:27.714Z,3.90
2018-05-08T23:09:59.018Z,3.67
2018-05-08T23:12:30.717Z,3.67
2018-05-08T23:15:01.955Z,3.57
2018-05-08T23:17:33.276Z,3.03
2018-05-08T23:20:04.831Z,3.63
2018-05-08T23:22:36.078Z,3.40
2018-05-08T23:25:07.323Z,3.67
2018-05-08T23:27:38.559Z,3.60
2018-05-08T23:30:09.799Z,3.80
2018-05-08T23:32:41.170Z,3.80
2018-05-08T23:35:12.494Z,3.80
2018-05-08T23:37:43.703Z,4.20
2018-05-08T23:40:14.964Z,3.77
2018-05-08T23:42:46.309Z,3.53
2018-05-08T23:45:18.310Z,3.60
2018-05-08T23:47:49.514Z,3.53
2018-05-08T23:50:21.506Z,3.53
2018-05-08T23:52:52.895Z,3.70
2018-05-08T23:55:24.189Z,3.17
2018-05-08T23:57:55.487Z,3.77
